sensor_id;sensor_type;location;lat;lon;timestamp;P1;durP1;ratioP1;P2;durP2;ratioP2
13295;SDS011;64850;60.390;-1.374;2022-12-18T00:01:14;6.72;;;1.92;;
13295;SDS011;64850;60.390;-1.374;2022-12-18T00:03:48;6.78;;;2.03;;
13295;SDS011;64850;60.390;-1.374;2022-12-18T00:06:15;6.05;;;1.85;;
13295;SDS011;64850;60.390;-1.374;2022-12-18T00:08:42;9.57;;;2.30;;
13295;SDS011;64850;60.390;-1.374;2022-12-18T00:11:10;5.05;;;1.60;;
13295;SDS011;64850;60.390;-1.374;2022-12-18T00:13:41;13.98;;;2.78;;
13295;SDS011;64850;60.390;-1.374;2022-12-18T00:16:08;2.35;;;1.90;;
13295;SDS011;64850;60.390;-1.374;2022-12-18T00:18:36;9.23;;;2.67;;
13295;SDS011;64850;60.390;-1.374;2022-12-18T00:21:03;9.15;;;2.80;;
13295;SDS011;64850;60.390;-1.374;2022-12-18T00:23:34;8.60;;;2.60;;
13295;SDS011;64850;60.390;-1.374;2022-12-18T00:26:04;7.35;;;1.92;;
13295;SDS011;64850;60.390;-1.374;2022-12-18T00:28:32;10.57;;;2.67;;
13295;SDS011;64850;60.390;-1.374;2022-12-18T00:31:06;9.32;;;2.13;;
13295;SDS011;64850;60.390;-1.374;2022-12-18T00:33:34;8.57;;;1.85;;
13295;SDS011;64850;60.390;-1.374;2022-12-18T00:36:04;9.00;;;1.80;;
13295;SDS011;64850;60.390;-1.374;2022-12-18T00:38:32;5.13;;;1.95;;
13295;SDS011;64850;60.390;-1.374;2022-12-18T00:40:58;9.07;;;2.10;;
13295;SDS011;64850;60.390;-1.374;2022-12-18T00:43:24;9.05;;;2.47;;
13295;SDS011;64850;60.390;-1.374;2022-12-18T00:45:50;8.85;;;1.98;;
13295;SDS011;64850;60.390;-1.374;2022-12-18T00:48:16;4.47;;;1.40;;
13295;SDS011;64850;60.390;-1.374;2022-12-18T00:50:42;6.30;;;1.45;;
13295;SDS011;64850;60.390;-1.374;2022-12-18T00:53:07;4.35;;;1.20;;
13295;SDS011;64850;60.390;-1.374;2022-12-18T00:55:39;8.27;;;1.67;;
13295;SDS011;64850;60.390;-1.374;2022-12-18T00:58:06;5.30;;;1.25;;
13295;SDS011;64850;60.390;-1.374;2022-12-18T01:00:33;6.93;;;1.20;;
13295;SDS011;64850;60.390;-1.374;2022-12-18T01:02:59;11.30;;;1.90;;
13295;SDS011;64850;60.390;-1.374;2022-12-18T01:05:25;5.32;;;1.73;;
13295;SDS011;64850;60.390;-1.374;2022-12-18T01:07:51;5.72;;;1.50;;
13295;SDS011;64850;60.390;-1.374;2022-12-18T01:10:17;4.70;;;1.40;;
13295;SDS011;64850;60.390;-1.374;2022-12-18T01:12:43;5.88;;;1.20;;
13295;SDS011;64850;60.390;-1.374;2022-12-18T01:15:09;6.38;;;1.25;;
13295;SDS011;64850;60.390;-1.374;2022-12-18T01:17:36;3.88;;;1.35;;
13295;SDS011;64850;60.390;-1.374;2022-12-18T01:20:02;4.72;;;1.25;;
13295;SDS011;64850;60.390;-1.374;2022-12-18T01:22:29;4.28;;;1.20;;
13295;SDS011;64850;60.390;-1.374;2022-12-18T01:24:54;1.58;;;0.90;;
13295;SDS011;64850;60.390;-1.374;2022-12-18T01:27:20;2.97;;;1.38;;
13295;SDS011;64850;60.390;-1.374;2022-12-18T01:29:46;2.15;;;1.02;;
13295;SDS011;64850;60.390;-1.374;2022-12-18T01:32:12;3.22;;;1.00;;
13295;SDS011;64850;60.390;-1.374;2022-12-18T01:34:38;3.05;;;1.27;;
13295;SDS011;64850;60.390;-1.374;2022-12-18T01:37:04;2.25;;;1.08;;
13295;SDS011;64850;60.390;-1.374;2022-12-18T01:39:36;5.25;;;1.58;;
13295;SDS011;64850;60.390;-1.374;2022-12-18T01:42:02;8.30;;;1.73;;
13295;SDS011;64850;60.390;-1.374;2022-12-18T01:49:57;4.20;;;1.30;;
13295;SDS011;64850;60.390;-1.374;2022-12-18T01:52:28;12.02;;;2.00;;
13295;SDS011;64850;60.390;-1.374;2022-12-18T01:54:56;6.57;;;1.70;;
13295;SDS011;64850;60.390;-1.374;2022-12-18T01:57:23;6.45;;;1.40;;
13295;SDS011;64850;60.390;-1.374;2022-12-18T01:59:50;5.40;;;1.30;;
13295;SDS011;64850;60.390;-1.374;2022-12-18T02:02:19;4.22;;;1.17;;
13295;SDS011;64850;60.390;-1.374;2022-12-18T02:04:46;4.85;;;1.70;;
13295;SDS011;64850;60.390;-1.374;2022-12-18T02:12:34;3.55;;;1.15;;
13295;SDS011;64850;60.390;-1.374;2022-12-18T02:15:09;5.35;;;1.70;;
13295;SDS011;64850;60.390;-1.374;2022-12-18T02:17:46;7.10;;;1.95;;
13295;SDS011;64850;60.390;-1.374;2022-12-18T02:20:18;4.00;;;1.80;;
13295;SDS011;64850;60.390;-1.374;2022-12-18T02:22:53;8.10;;;1.80;;
13295;SDS011;64850;60.390;-1.374;2022-12-18T02:29:06;14.60;;;2.13;;
13295;SDS011;64850;60.390;-1.374;2022-12-18T02:31:39;5.97;;;1.40;;
13295;SDS011;64850;60.390;-1.374;2022-12-18T02:34:17;6.10;;;1.60;;
13295;SDS011;64850;60.390;-1.374;2022-12-18T02:36:45;6.53;;;1.92;;
13295;SDS011;64850;60.390;-1.374;2022-12-18T02:39:13;9.55;;;1.73;;
13295;SDS011;64850;60.390;-1.374;2022-12-18T02:41:40;6.85;;;1.75;;
13295;SDS011;64850;60.390;-1.374;2022-12-18T02:44:08;5.65;;;1.50;;
13295;SDS011;64850;60.390;-1.374;2022-12-18T02:46:44;5.25;;;1.67;;
13295;SDS011;64850;60.390;-1.374;2022-12-18T02:52:20;4.60;;;1.27;;
13295;SDS011;64850;60.390;-1.374;2022-12-18T03:06:10;10.80;;;2.33;;
13295;SDS011;64850;60.390;-1.374;2022-12-18T03:08:50;7.07;;;1.80;;
13295;SDS011;64850;60.390;-1.374;2022-12-18T03:11:21;11.45;;;1.98;;
13295;SDS011;64850;60.390;-1.374;2022-12-18T03:14:10;11.18;;;2.20;;
13295;SDS011;64850;60.390;-1.374;2022-12-18T03:16:40;11.05;;;1.80;;
13295;SDS011;64850;60.390;-1.374;2022-12-18T03:19:09;12.10;;;2.72;;
13295;SDS011;64850;60.390;-1.374;2022-12-18T03:21:42;6.53;;;1.95;;
13295;SDS011;64850;60.390;-1.374;2022-12-18T03:24:10;11.52;;;2.20;;
13295;SDS011;64850;60.390;-1.374;2022-12-18T03:26:37;9.60;;;2.42;;
13295;SDS011;64850;60.390;-1.374;2022-12-18T03:29:07;10.07;;;2.35;;
13295;SDS011;64850;60.390;-1.374;2022-12-18T03:31:39;11.98;;;2.25;;
13295;SDS011;64850;60.390;-1.374;2022-12-18T03:34:15;14.07;;;2.17;;
13295;SDS011;64850;60.390;-1.374;2022-12-18T03:36:46;9.38;;;2.22;;
13295;SDS011;64850;60.390;-1.374;2022-12-18T03:39:12;11.13;;;2.45;;
13295;SDS011;64850;60.390;-1.374;2022-12-18T03:41:46;10.02;;;2.53;;
13295;SDS011;64850;60.390;-1.374;2022-12-18T03:44:31;14.05;;;2.78;;
13295;SDS011;64850;60.390;-1.374;2022-12-18T03:47:09;12.18;;;2.45;;
13295;SDS011;64850;60.390;-1.374;2022-12-18T03:52:28;14.68;;;3.42;;
13295;SDS011;64850;60.390;-1.374;2022-12-18T03:55:00;12.02;;;2.55;;
13295;SDS011;64850;60.390;-1.374;2022-12-18T03:57:28;13.93;;;3.25;;
13295;SDS011;64850;60.390;-1.374;2022-12-18T04:00:05;19.10;;;3.55;;
13295;SDS011;64850;60.390;-1.374;2022-12-18T04:02:34;12.90;;;2.97;;
13295;SDS011;64850;60.390;-1.374;2022-12-18T04:05:03;14.20;;;2.88;;
13295;SDS011;64850;60.390;-1.374;2022-12-18T04:07:34;14.68;;;3.28;;
13295;SDS011;64850;60.390;-1.374;2022-12-18T04:10:00;14.80;;;3.08;;
13295;SDS011;64850;60.390;-1.374;2022-12-18T04:12:28;11.48;;;2.63;;
13295;SDS011;64850;60.390;-1.374;2022-12-18T04:14:55;10.13;;;2.65;;
13295;SDS011;64850;60.390;-1.374;2022-12-18T04:17:21;8.15;;;2.50;;
13295;SDS011;64850;60.390;-1.374;2022-12-18T04:19:47;18.40;;;3.45;;
13295;SDS011;64850;60.390;-1.374;2022-12-18T04:22:13;14.38;;;2.88;;
13295;SDS011;64850;60.390;-1.374;2022-12-18T04:24:39;16.30;;;2.42;;
13295;SDS011;64850;60.390;-1.374;2022-12-18T04:27:06;10.63;;;2.78;;
13295;SDS011;64850;60.390;-1.374;2022-12-18T04:29:32;10.55;;;2.35;;
13295;SDS011;64850;60.390;-1.374;2022-12-18T04:31:57;13.52;;;2.88;;
13295;SDS011;64850;60.390;-1.374;2022-12-18T04:34:23;12.70;;;2.80;;
13295;SDS011;64850;60.390;-1.374;2022-12-18T04:36:49;17.33;;;3.10;;
13295;SDS011;64850;60.390;-1.374;2022-12-18T04:39:15;20.92;;;3.45;;
13295;SDS011;64850;60.390;-1.374;2022-12-18T04:41:43;13.18;;;2.97;;
13295;SDS011;64850;60.390;-1.374;2022-12-18T04:44:09;16.60;;;3.42;;
13295;SDS011;64850;60.390;-1.374;2022-12-18T04:46:35;11.52;;;2.40;;
13295;SDS011;64850;60.390;-1.374;2022-12-18T04:49:01;13.20;;;3.22;;
13295;SDS011;64850;60.390;-1.374;2022-12-18T04:51:34;9.57;;;2.75;;
13295;SDS011;64850;60.390;-1.374;2022-12-18T04:54:00;13.13;;;3.28;;
13295;SDS011;64850;60.390;-1.374;2022-12-18T04:56:27;17.80;;;2.75;;
13295;SDS011;64850;60.390;-1.374;2022-12-18T04:58:52;16.10;;;3.00;;
13295;SDS011;64850;60.390;-1.374;2022-12-18T05:01:18;12.82;;;3.33;;
13295;SDS011;64850;60.390;-1.374;2022-12-18T05:03:44;11.55;;;2.80;;
13295;SDS011;64850;60.390;-1.374;2022-12-18T05:06:10;6.97;;;2.40;;
13295;SDS011;64850;60.390;-1.374;2022-12-18T05:08:36;11.05;;;2.20;;
13295;SDS011;64850;60.390;-1.374;2022-12-18T05:11:03;13.32;;;2.30;;
13295;SDS011;64850;60.390;-1.374;2022-12-18T05:13:32;10.32;;;2.55;;
13295;SDS011;64850;60.390;-1.374;2022-12-18T05:15:58;8.65;;;2.03;;
13295;SDS011;64850;60.390;-1.374;2022-12-18T05:18:24;9.65;;;1.85;;
13295;SDS011;64850;60.390;-1.374;2022-12-18T05:20:51;11.05;;;2.22;;
13295;SDS011;64850;60.390;-1.374;2022-12-18T05:23:18;4.40;;;1.55;;
13295;SDS011;64850;60.390;-1.374;2022-12-18T05:25:54;8.30;;;2.15;;
13295;SDS011;64850;60.390;-1.374;2022-12-18T05:28:22;8.82;;;2.00;;
13295;SDS011;64850;60.390;-1.374;2022-12-18T05:30:49;9.32;;;1.77;;
13295;SDS011;64850;60.390;-1.374;2022-12-18T05:33:16;5.78;;;1.75;;
13295;SDS011;64850;60.390;-1.374;2022-12-18T05:35:43;10.23;;;2.15;;
13295;SDS011;64850;60.390;-1.374;2022-12-18T05:38:08;8.07;;;2.10;;
13295;SDS011;64850;60.390;-1.374;2022-12-18T05:40:34;10.80;;;2.38;;
13295;SDS011;64850;60.390;-1.374;2022-12-18T05:43:01;10.82;;;2.13;;
13295;SDS011;64850;60.390;-1.374;2022-12-18T05:45:32;10.70;;;2.30;;
13295;SDS011;64850;60.390;-1.374;2022-12-18T05:48:03;7.90;;;1.75;;
13295;SDS011;64850;60.390;-1.374;2022-12-18T05:50:29;12.40;;;2.30;;
13295;SDS011;64850;60.390;-1.374;2022-12-18T05:52:55;11.80;;;2.10;;
13295;SDS011;64850;60.390;-1.374;2022-12-18T05:55:21;7.72;;;2.00;;
13295;SDS011;64850;60.390;-1.374;2022-12-18T05:57:46;4.30;;;1.60;;
13295;SDS011;64850;60.390;-1.374;2022-12-18T06:00:12;10.20;;;1.90;;
13295;SDS011;64850;60.390;-1.374;2022-12-18T06:02:39;8.85;;;2.15;;
13295;SDS011;64850;60.390;-1.374;2022-12-18T06:05:04;10.13;;;2.08;;
13295;SDS011;64850;60.390;-1.374;2022-12-18T06:07:30;8.30;;;2.17;;
13295;SDS011;64850;60.390;-1.374;2022-12-18T06:09:56;6.55;;;2.08;;
13295;SDS011;64850;60.390;-1.374;2022-12-18T06:12:22;7.82;;;2.03;;
13295;SDS011;64850;60.390;-1.374;2022-12-18T06:14:48;9.13;;;2.05;;
13295;SDS011;64850;60.390;-1.374;2022-12-18T06:17:14;12.40;;;2.55;;
13295;SDS011;64850;60.390;-1.374;2022-12-18T06:19:42;11.23;;;2.47;;
13295;SDS011;64850;60.390;-1.374;2022-12-18T06:22:08;18.17;;;2.58;;
13295;SDS011;64850;60.390;-1.374;2022-12-18T06:24:34;7.22;;;2.03;;
13295;SDS011;64850;60.390;-1.374;2022-12-18T06:27:00;10.88;;;2.10;;
13295;SDS011;64850;60.390;-1.374;2022-12-18T06:29:26;9.43;;;2.65;;
13295;SDS011;64850;60.390;-1.374;2022-12-18T06:31:51;15.40;;;2.17;;
13295;SDS011;64850;60.390;-1.374;2022-12-18T06:34:17;7.18;;;1.92;;
13295;SDS011;64850;60.390;-1.374;2022-12-18T06:36:43;14.20;;;2.55;;
13295;SDS011;64850;60.390;-1.374;2022-12-18T06:39:12;9.57;;;2.13;;
13295;SDS011;64850;60.390;-1.374;2022-12-18T06:41:37;14.80;;;2.10;;
13295;SDS011;64850;60.390;-1.374;2022-12-18T06:44:03;15.30;;;1.95;;
13295;SDS011;64850;60.390;-1.374;2022-12-18T06:46:29;6.32;;;2.22;;
13295;SDS011;64850;60.390;-1.374;2022-12-18T06:48:57;7.88;;;1.60;;
13295;SDS011;64850;60.390;-1.374;2022-12-18T06:51:23;11.43;;;2.38;;
13295;SDS011;64850;60.390;-1.374;2022-12-18T06:53:49;7.18;;;1.80;;
13295;SDS011;64850;60.390;-1.374;2022-12-18T06:56:15;9.20;;;1.83;;
13295;SDS011;64850;60.390;-1.374;2022-12-18T06:58:41;10.48;;;2.20;;
13295;SDS011;64850;60.390;-1.374;2022-12-18T07:01:09;13.50;;;2.55;;
13295;SDS011;64850;60.390;-1.374;2022-12-18T07:03:36;12.20;;;2.15;;
13295;SDS011;64850;60.390;-1.374;2022-12-18T07:06:05;11.73;;;2.30;;
13295;SDS011;64850;60.390;-1.374;2022-12-18T07:08:32;10.32;;;2.30;;
13295;SDS011;64850;60.390;-1.374;2022-12-18T07:10:58;16.17;;;2.20;;
13295;SDS011;64850;60.390;-1.374;2022-12-18T07:13:23;9.05;;;1.85;;
13295;SDS011;64850;60.390;-1.374;2022-12-18T07:15:49;7.85;;;2.28;;
13295;SDS011;64850;60.390;-1.374;2022-12-18T07:18:15;6.40;;;1.98;;
13295;SDS011;64850;60.390;-1.374;2022-12-18T07:20:41;8.60;;;1.70;;
13295;SDS011;64850;60.390;-1.374;2022-12-18T07:23:07;4.22;;;1.58;;
13295;SDS011;64850;60.390;-1.374;2022-12-18T07:25:36;9.70;;;1.85;;
13295;SDS011;64850;60.390;-1.374;2022-12-18T07:28:02;10.02;;;2.67;;
13295;SDS011;64850;60.390;-1.374;2022-12-18T07:30:29;9.85;;;2.25;;
13295;SDS011;64850;60.390;-1.374;2022-12-18T07:32:55;9.10;;;2.00;;
13295;SDS011;64850;60.390;-1.374;2022-12-18T07:35:20;11.00;;;2.40;;
13295;SDS011;64850;60.390;-1.374;2022-12-18T07:37:46;7.47;;;1.75;;
13295;SDS011;64850;60.390;-1.374;2022-12-18T07:40:12;8.07;;;2.22;;
13295;SDS011;64850;60.390;-1.374;2022-12-18T07:42:38;12.82;;;2.70;;
13295;SDS011;64850;60.390;-1.374;2022-12-18T07:45:04;9.40;;;2.50;;
13295;SDS011;64850;60.390;-1.374;2022-12-18T07:47:30;8.82;;;1.88;;
13295;SDS011;64850;60.390;-1.374;2022-12-18T07:49:58;7.55;;;2.05;;
13295;SDS011;64850;60.390;-1.374;2022-12-18T07:52:24;6.82;;;1.67;;
13295;SDS011;64850;60.390;-1.374;2022-12-18T07:54:50;7.72;;;1.85;;
13295;SDS011;64850;60.390;-1.374;2022-12-18T07:57:16;8.10;;;1.98;;
13295;SDS011;64850;60.390;-1.374;2022-12-18T07:59:42;6.78;;;2.25;;
13295;SDS011;64850;60.390;-1.374;2022-12-18T08:02:08;10.25;;;1.88;;
13295;SDS011;64850;60.390;-1.374;2022-12-18T08:04:34;5.72;;;1.67;;
13295;SDS011;64850;60.390;-1.374;2022-12-18T08:07:00;5.90;;;1.90;;
13295;SDS011;64850;60.390;-1.374;2022-12-18T08:09:26;8.82;;;2.00;;
13295;SDS011;64850;60.390;-1.374;2022-12-18T08:11:52;8.07;;;2.25;;
13295;SDS011;64850;60.390;-1.374;2022-12-18T08:14:18;10.07;;;2.05;;
13295;SDS011;64850;60.390;-1.374;2022-12-18T08:16:43;8.32;;;1.80;;
13295;SDS011;64850;60.390;-1.374;2022-12-18T08:19:09;12.13;;;2.67;;
13295;SDS011;64850;60.390;-1.374;2022-12-18T08:21:35;6.82;;;1.90;;
13295;SDS011;64850;60.390;-1.374;2022-12-18T08:24:02;8.73;;;1.80;;
13295;SDS011;64850;60.390;-1.374;2022-12-18T08:26:29;5.45;;;1.73;;
13295;SDS011;64850;60.390;-1.374;2022-12-18T08:28:56;7.32;;;1.90;;
13295;SDS011;64850;60.390;-1.374;2022-12-18T08:31:24;8.23;;;2.20;;
13295;SDS011;64850;60.390;-1.374;2022-12-18T08:33:51;7.05;;;2.13;;
13295;SDS011;64850;60.390;-1.374;2022-12-18T08:36:18;8.35;;;1.75;;
13295;SDS011;64850;60.390;-1.374;2022-12-18T08:38:44;15.23;;;2.60;;
13295;SDS011;64850;60.390;-1.374;2022-12-18T08:41:12;9.35;;;2.15;;
13295;SDS011;64850;60.390;-1.374;2022-12-18T08:43:39;14.63;;;2.88;;
13295;SDS011;64850;60.390;-1.374;2022-12-18T08:46:25;6.50;;;1.90;;
13295;SDS011;64850;60.390;-1.374;2022-12-18T08:48:52;15.27;;;2.50;;
13295;SDS011;64850;60.390;-1.374;2022-12-18T08:51:20;14.85;;;2.65;;
13295;SDS011;64850;60.390;-1.374;2022-12-18T08:53:46;10.80;;;2.05;;
13295;SDS011;64850;60.390;-1.374;2022-12-18T08:56:12;8.68;;;2.05;;
13295;SDS011;64850;60.390;-1.374;2022-12-18T08:58:40;9.30;;;1.90;;
13295;SDS011;64850;60.390;-1.374;2022-12-18T09:01:07;5.18;;;2.15;;
13295;SDS011;64850;60.390;-1.374;2022-12-18T09:03:34;12.80;;;2.60;;
13295;SDS011;64850;60.390;-1.374;2022-12-18T09:06:00;8.40;;;2.10;;
13295;SDS011;64850;60.390;-1.374;2022-12-18T09:08:27;9.80;;;1.98;;
13295;SDS011;64850;60.390;-1.374;2022-12-18T09:10:53;8.32;;;2.42;;
13295;SDS011;64850;60.390;-1.374;2022-12-18T09:13:20;9.55;;;2.33;;
13295;SDS011;64850;60.390;-1.374;2022-12-18T09:15:50;14.23;;;2.53;;
13295;SDS011;64850;60.390;-1.374;2022-12-18T09:18:19;8.10;;;1.92;;
13295;SDS011;64850;60.390;-1.374;2022-12-18T09:20:46;8.15;;;2.13;;
13295;SDS011;64850;60.390;-1.374;2022-12-18T09:23:12;11.88;;;2.95;;
13295;SDS011;64850;60.390;-1.374;2022-12-18T09:25:38;11.05;;;2.08;;
13295;SDS011;64850;60.390;-1.374;2022-12-18T09:28:06;9.35;;;2.45;;
13295;SDS011;64850;60.390;-1.374;2022-12-18T09:30:40;13.07;;;2.28;;
13295;SDS011;64850;60.390;-1.374;2022-12-18T09:33:08;10.45;;;2.60;;
13295;SDS011;64850;60.390;-1.374;2022-12-18T09:35:39;12.18;;;2.10;;
13295;SDS011;64850;60.390;-1.374;2022-12-18T09:38:06;10.30;;;2.55;;
13295;SDS011;64850;60.390;-1.374;2022-12-18T09:40:34;7.47;;;2.15;;
13295;SDS011;64850;60.390;-1.374;2022-12-18T09:43:05;9.80;;;2.70;;
13295;SDS011;64850;60.390;-1.374;2022-12-18T09:45:35;8.48;;;2.08;;
13295;SDS011;64850;60.390;-1.374;2022-12-18T09:48:10;9.55;;;2.13;;
13295;SDS011;64850;60.390;-1.374;2022-12-18T09:50:51;10.70;;;2.30;;
13295;SDS011;64850;60.390;-1.374;2022-12-18T09:53:24;9.07;;;2.10;;
13295;SDS011;64850;60.390;-1.374;2022-12-18T09:55:52;9.65;;;2.15;;
13295;SDS011;64850;60.390;-1.374;2022-12-18T10:01:11;7.95;;;2.25;;
13295;SDS011;64850;60.390;-1.374;2022-12-18T10:03:43;9.48;;;2.78;;
13295;SDS011;64850;60.390;-1.374;2022-12-18T10:14:27;9.65;;;2.70;;
13295;SDS011;64850;60.390;-1.374;2022-12-18T10:17:12;8.48;;;2.20;;
13295;SDS011;64850;60.390;-1.374;2022-12-18T10:23:01;8.23;;;2.15;;
13295;SDS011;64850;60.390;-1.374;2022-12-18T10:28:12;8.40;;;2.47;;
13295;SDS011;64850;60.390;-1.374;2022-12-18T10:30:40;8.73;;;2.20;;
13295;SDS011;64850;60.390;-1.374;2022-12-18T10:33:10;7.80;;;2.78;;
13295;SDS011;64850;60.390;-1.374;2022-12-18T10:35:42;6.03;;;2.13;;
13295;SDS011;64850;60.390;-1.374;2022-12-18T10:40:47;9.27;;;2.30;;
13295;SDS011;64850;60.390;-1.374;2022-12-18T10:45:58;9.23;;;2.25;;
13295;SDS011;64850;60.390;-1.374;2022-12-18T10:48:56;9.50;;;1.98;;
13295;SDS011;64850;60.390;-1.374;2022-12-18T10:51:24;12.65;;;2.55;;
13295;SDS011;64850;60.390;-1.374;2022-12-18T10:53:56;10.80;;;2.20;;
13295;SDS011;64850;60.390;-1.374;2022-12-18T10:56:26;7.18;;;1.77;;
13295;SDS011;64850;60.390;-1.374;2022-12-18T10:58:57;9.13;;;2.22;;
13295;SDS011;64850;60.390;-1.374;2022-12-18T11:01:33;6.70;;;1.90;;
13295;SDS011;64850;60.390;-1.374;2022-12-18T11:04:18;3.63;;;1.95;;
13295;SDS011;64850;60.390;-1.374;2022-12-18T11:09:43;6.72;;;1.83;;
13295;SDS011;64850;60.390;-1.374;2022-12-18T11:12:23;7.72;;;2.00;;
13295;SDS011;64850;60.390;-1.374;2022-12-18T11:14:52;3.70;;;1.40;;
13295;SDS011;64850;60.390;-1.374;2022-12-18T11:17:29;6.88;;;1.98;;
13295;SDS011;64850;60.390;-1.374;2022-12-18T11:20:04;11.13;;;1.90;;
13295;SDS011;64850;60.390;-1.374;2022-12-18T11:22:33;5.40;;;1.70;;
13295;SDS011;64850;60.390;-1.374;2022-12-18T11:25:02;4.15;;;1.50;;
13295;SDS011;64850;60.390;-1.374;2022-12-18T11:27:30;4.68;;;1.65;;
13295;SDS011;64850;60.390;-1.374;2022-12-18T11:30:10;4.25;;;1.40;;
13295;SDS011;64850;60.390;-1.374;2022-12-18T11:32:49;6.30;;;1.75;;
13295;SDS011;64850;60.390;-1.374;2022-12-18T11:35:23;4.35;;;1.55;;
13295;SDS011;64850;60.390;-1.374;2022-12-18T11:38:06;3.90;;;1.20;;
13295;SDS011;64850;60.390;-1.374;2022-12-18T11:40:43;5.47;;;1.60;;
13295;SDS011;64850;60.390;-1.374;2022-12-18T11:43:21;2.88;;;1.23;;
13295;SDS011;64850;60.390;-1.374;2022-12-18T11:46:13;6.78;;;1.35;;
13295;SDS011;64850;60.390;-1.374;2022-12-18T11:51:37;5.90;;;1.40;;
13295;SDS011;64850;60.390;-1.374;2022-12-18T11:54:14;2.75;;;1.27;;
13295;SDS011;64850;60.390;-1.374;2022-12-18T12:01:51;6.22;;;1.58;;
13295;SDS011;64850;60.390;-1.374;2022-12-18T12:07:40;4.97;;;1.83;;
13295;SDS011;64850;60.390;-1.374;2022-12-18T12:10:30;4.43;;;1.85;;
13295;SDS011;64850;60.390;-1.374;2022-12-18T12:16:07;5.38;;;1.42;;
13295;SDS011;64850;60.390;-1.374;2022-12-18T12:24:23;3.63;;;1.45;;
13295;SDS011;64850;60.390;-1.374;2022-12-18T12:30:28;3.40;;;1.20;;
13295;SDS011;64850;60.390;-1.374;2022-12-18T12:35:52;4.05;;;1.17;;
13295;SDS011;64850;60.390;-1.374;2022-12-18T12:40:59;2.85;;;1.20;;
13295;SDS011;64850;60.390;-1.374;2022-12-18T12:43:41;3.38;;;1.40;;
13295;SDS011;64850;60.390;-1.374;2022-12-18T12:46:10;5.60;;;1.38;;
13295;SDS011;64850;60.390;-1.374;2022-12-18T12:48:46;2.15;;;1.23;;
13295;SDS011;64850;60.390;-1.374;2022-12-18T12:53:40;3.20;;;1.20;;
13295;SDS011;64850;60.390;-1.374;2022-12-18T12:56:06;7.05;;;1.20;;
13295;SDS011;64850;60.390;-1.374;2022-12-18T12:58:43;3.88;;;1.27;;
13295;SDS011;64850;60.390;-1.374;2022-12-18T13:07:19;6.13;;;1.27;;
13295;SDS011;64850;60.390;-1.374;2022-12-18T13:15:47;6.68;;;1.30;;
13295;SDS011;64850;60.390;-1.374;2022-12-18T13:18:31;4.72;;;1.42;;
13295;SDS011;64850;60.390;-1.374;2022-12-18T13:29:01;4.30;;;1.33;;
13295;SDS011;64850;60.390;-1.374;2022-12-18T13:31:14;3.72;;;1.40;;
13295;SDS011;64850;60.390;-1.374;2022-12-18T13:34:07;3.88;;;1.05;;
13295;SDS011;64850;60.390;-1.374;2022-12-18T13:36:37;6.45;;;1.10;;
13295;SDS011;64850;60.390;-1.374;2022-12-18T13:39:10;6.53;;;1.40;;
13295;SDS011;64850;60.390;-1.374;2022-12-18T13:41:47;3.67;;;1.73;;
13295;SDS011;64850;60.390;-1.374;2022-12-18T13:44:25;4.40;;;1.55;;
13295;SDS011;64850;60.390;-1.374;2022-12-18T13:47:02;6.65;;;1.42;;
13295;SDS011;64850;60.390;-1.374;2022-12-18T13:49:38;7.32;;;1.75;;
13295;SDS011;64850;60.390;-1.374;2022-12-18T13:52:18;3.78;;;1.40;;
13295;SDS011;64850;60.390;-1.374;2022-12-18T13:54:59;4.57;;;1.40;;
13295;SDS011;64850;60.390;-1.374;2022-12-18T13:57:31;3.80;;;1.30;;
13295;SDS011;64850;60.390;-1.374;2022-12-18T14:02:59;5.60;;;1.63;;
13295;SDS011;64850;60.390;-1.374;2022-12-18T14:05:29;4.38;;;1.15;;
13295;SDS011;64850;60.390;-1.374;2022-12-18T14:08:03;6.38;;;1.65;;
13295;SDS011;64850;60.390;-1.374;2022-12-18T14:10:31;5.57;;;1.30;;
13295;SDS011;64850;60.390;-1.374;2022-12-18T14:12:58;6.43;;;1.48;;
13295;SDS011;64850;60.390;-1.374;2022-12-18T14:15:40;6.38;;;1.35;;
13295;SDS011;64850;60.390;-1.374;2022-12-18T14:20:58;7.85;;;1.42;;
13295;SDS011;64850;60.390;-1.374;2022-12-18T14:25:52;5.18;;;1.20;;
13295;SDS011;64850;60.390;-1.374;2022-12-18T14:28:18;5.00;;;1.40;;
13295;SDS011;64850;60.390;-1.374;2022-12-18T14:30:44;4.20;;;1.40;;
13295;SDS011;64850;60.390;-1.374;2022-12-18T14:33:12;9.27;;;1.30;;
13295;SDS011;64850;60.390;-1.374;2022-12-18T14:35:56;6.75;;;1.30;;
13295;SDS011;64850;60.390;-1.374;2022-12-18T14:41:06;3.28;;;1.50;;
13295;SDS011;64850;60.390;-1.374;2022-12-18T14:43:37;2.45;;;1.15;;
13295;SDS011;64850;60.390;-1.374;2022-12-18T14:46:05;11.70;;;1.60;;
13295;SDS011;64850;60.390;-1.374;2022-12-18T14:48:51;3.28;;;1.33;;
13295;SDS011;64850;60.390;-1.374;2022-12-18T14:51:18;6.15;;;1.40;;
13295;SDS011;64850;60.390;-1.374;2022-12-18T14:53:57;5.10;;;1.27;;
13295;SDS011;64850;60.390;-1.374;2022-12-18T14:56:29;4.32;;;1.40;;
13295;SDS011;64850;60.390;-1.374;2022-12-18T14:59:04;3.53;;;1.33;;
13295;SDS011;64850;60.390;-1.374;2022-12-18T15:04:36;5.68;;;1.65;;
13295;SDS011;64850;60.390;-1.374;2022-12-18T15:09:37;7.63;;;1.92;;
13295;SDS011;64850;60.390;-1.374;2022-12-18T15:12:04;7.57;;;1.75;;
13295;SDS011;64850;60.390;-1.374;2022-12-18T15:14:34;8.48;;;1.90;;
13295;SDS011;64850;60.390;-1.374;2022-12-18T15:17:06;5.72;;;1.55;;
13295;SDS011;64850;60.390;-1.374;2022-12-18T15:19:41;5.78;;;1.52;;
13295;SDS011;64850;60.390;-1.374;2022-12-18T15:22:17;4.75;;;1.73;;
13295;SDS011;64850;60.390;-1.374;2022-12-18T15:24:43;7.32;;;1.80;;
13295;SDS011;64850;60.390;-1.374;2022-12-18T15:32:34;6.93;;;2.35;;
13295;SDS011;64850;60.390;-1.374;2022-12-18T15:37:39;3.95;;;1.75;;
13295;SDS011;64850;60.390;-1.374;2022-12-18T15:40:06;8.25;;;1.80;;
13295;SDS011;64850;60.390;-1.374;2022-12-18T15:42:43;9.07;;;1.98;;
13295;SDS011;64850;60.390;-1.374;2022-12-18T15:45:28;11.57;;;1.73;;
13295;SDS011;64850;60.390;-1.374;2022-12-18T15:47:54;5.50;;;1.70;;
13295;SDS011;64850;60.390;-1.374;2022-12-18T15:50:19;8.45;;;2.05;;
13295;SDS011;64850;60.390;-1.374;2022-12-18T15:52:46;7.97;;;1.85;;
13295;SDS011;64850;60.390;-1.374;2022-12-18T15:55:16;8.52;;;1.95;;
13295;SDS011;64850;60.390;-1.374;2022-12-18T15:58:03;12.75;;;2.50;;
13295;SDS011;64850;60.390;-1.374;2022-12-18T16:00:31;11.75;;;2.50;;
13295;SDS011;64850;60.390;-1.374;2022-12-18T16:02:58;10.38;;;2.72;;
13295;SDS011;64850;60.390;-1.374;2022-12-18T16:05:23;10.32;;;2.58;;
13295;SDS011;64850;60.390;-1.374;2022-12-18T16:07:50;8.90;;;2.30;;
13295;SDS011;64850;60.390;-1.374;2022-12-18T16:10:16;9.13;;;1.95;;
13295;SDS011;64850;60.390;-1.374;2022-12-18T16:12:42;10.48;;;2.35;;
13295;SDS011;64850;60.390;-1.374;2022-12-18T16:15:09;8.18;;;2.30;;
13295;SDS011;64850;60.390;-1.374;2022-12-18T16:17:39;7.93;;;2.08;;
13295;SDS011;64850;60.390;-1.374;2022-12-18T16:20:06;6.10;;;1.88;;
13295;SDS011;64850;60.390;-1.374;2022-12-18T16:22:42;8.68;;;2.00;;
13295;SDS011;64850;60.390;-1.374;2022-12-18T16:32:43;6.55;;;2.00;;
13295;SDS011;64850;60.390;-1.374;2022-12-18T16:35:20;7.93;;;2.08;;
13295;SDS011;64850;60.390;-1.374;2022-12-18T16:38:06;14.85;;;2.42;;
13295;SDS011;64850;60.390;-1.374;2022-12-18T16:40:33;8.68;;;2.33;;
13295;SDS011;64850;60.390;-1.374;2022-12-18T16:43:19;12.68;;;2.63;;
13295;SDS011;64850;60.390;-1.374;2022-12-18T16:45:45;8.10;;;2.22;;
13295;SDS011;64850;60.390;-1.374;2022-12-18T16:48:11;13.02;;;2.50;;
13295;SDS011;64850;60.390;-1.374;2022-12-18T16:50:36;10.48;;;2.08;;
13295;SDS011;64850;60.390;-1.374;2022-12-18T16:53:02;10.73;;;2.20;;
13295;SDS011;64850;60.390;-1.374;2022-12-18T16:55:28;9.57;;;2.20;;
13295;SDS011;64850;60.390;-1.374;2022-12-18T16:57:54;13.07;;;2.40;;
13295;SDS011;64850;60.390;-1.374;2022-12-18T17:00:20;11.65;;;2.40;;
13295;SDS011;64850;60.390;-1.374;2022-12-18T17:02:46;8.80;;;2.50;;
13295;SDS011;64850;60.390;-1.374;2022-12-18T17:05:12;16.92;;;3.05;;